createdAt,value
2022-08-26T00:00:45.287Z,20.44
2022-08-26T00:01:45.363Z,20.52
2022-08-26T00:02:45.292Z,20.52
2022-08-26T00:03:45.305Z,20.53
2022-08-26T00:04:45.260Z,20.41
2022-08-26T00:05:45.254Z,20.41
2022-08-26T00:06:46.277Z,20.39
2022-08-26T00:07:45.250Z,20.41
2022-08-26T00:08:45.224Z,20.33
2022-08-26T00:09:47.412Z,20.40
2022-08-26T00:10:45.211Z,20.39
2022-08-26T00:11:45.349Z,20.41
2022-08-26T00:12:45.226Z,20.31
2022-08-26T00:13:48.582Z,20.31
2022-08-26T00:14:45.171Z,20.26
2022-08-26T00:15:45.175Z,20.22
2022-08-26T00:16:47.952Z,20.17
2022-08-26T00:17:45.148Z,20.11
2022-08-26T00:18:45.136Z,20.19
2022-08-26T00:19:45.134Z,20.06
2022-08-26T00:20:45.127Z,20.06
2022-08-26T00:21:45.147Z,20.04
2022-08-26T00:22:45.109Z,19.99
2022-08-26T00:23:45.107Z,20.04
2022-08-26T00:24:47.922Z,20.00
2022-08-26T00:25:45.095Z,20.01
2022-08-26T00:26:45.113Z,20.00
2022-08-26T00:27:45.082Z,19.97
2022-08-26T00:28:45.063Z,19.99
2022-08-26T00:29:45.069Z,20.00
2022-08-26T00:30:45.041Z,20.00
2022-08-26T00:31:45.268Z,19.94
2022-08-26T00:32:46.358Z,20.00
2022-08-26T00:33:45.021Z,19.97
2022-08-26T00:34:45.004Z,20.00
2022-08-26T00:35:45.310Z,19.94
2022-08-26T00:36:45.021Z,19.86
2022-08-26T00:37:44.984Z,19.85
2022-08-26T00:38:44.974Z,19.88
2022-08-26T00:39:45.666Z,19.88
2022-08-26T00:40:44.968Z,19.82
2022-08-26T00:41:44.977Z,19.73
2022-08-26T00:42:46.044Z,19.74
2022-08-26T00:43:47.225Z,19.79
2022-08-26T00:44:44.929Z,19.84
2022-08-26T00:45:44.989Z,19.73
2022-08-26T00:46:46.947Z,19.69
2022-08-26T00:47:44.894Z,19.71
2022-08-26T00:49:16.803Z,19.74
2022-08-26T00:49:44.881Z,19.70
2022-08-26T00:50:44.871Z,19.63
2022-08-26T00:51:44.913Z,19.59
2022-08-26T00:52:44.859Z,19.67
2022-08-26T00:53:44.852Z,19.63
2022-08-26T00:54:44.851Z,19.71
2022-08-26T00:55:44.829Z,19.76
2022-08-26T00:56:44.849Z,19.63
2022-08-26T00:57:44.805Z,19.69
2022-08-26T00:58:45.804Z,19.64
2022-08-26T00:59:44.819Z,19.60
2022-08-26T01:00:45.260Z,19.51
2022-08-26T01:01:46.037Z,19.63
2022-08-26T01:02:46.813Z,19.62
2022-08-26T01:03:44.762Z,19.63
2022-08-26T01:04:44.751Z,19.63
2022-08-26T01:05:44.737Z,19.56
2022-08-26T01:06:44.763Z,19.63
2022-08-26T01:07:44.720Z,19.62
2022-08-26T01:08:44.715Z,19.63
2022-08-26T01:09:44.705Z,19.56
2022-08-26T01:10:44.704Z,19.64
2022-08-26T01:11:44.725Z,19.67
2022-08-26T01:12:44.678Z,19.59
2022-08-26T01:13:44.671Z,19.55
2022-08-26T01:14:46.407Z,19.52
2022-08-26T01:15:44.660Z,19.51
2022-08-26T01:16:44.704Z,19.54
2022-08-26T01:17:44.647Z,19.54
2022-08-26T01:18:45.626Z,19.52
2022-08-26T01:19:44.626Z,19.55
2022-08-26T01:20:44.626Z,19.52
2022-08-26T01:21:44.655Z,19.54
2022-08-26T01:22:44.605Z,19.44
2022-08-26T01:23:45.201Z,19.55
2022-08-26T01:24:44.606Z,19.55
2022-08-26T01:25:44.578Z,19.54
2022-08-26T01:26:44.592Z,19.48
2022-08-26T01:27:44.804Z,19.42
2022-08-26T01:28:44.557Z,19.48
2022-08-26T01:29:45.545Z,19.45
2022-08-26T01:30:44.535Z,19.41
2022-08-26T01:31:44.680Z,19.33
2022-08-26T01:32:44.525Z,19.31
2022-08-26T01:33:44.510Z,19.33
2022-08-26T01:34:44.505Z,19.34
2022-08-26T01:35:44.503Z,19.33
2022-08-26T01:36:47.939Z,19.26
2022-08-26T01:37:46.489Z,19.30
2022-08-26T01:38:44.470Z,19.22
2022-08-26T01:39:44.460Z,19.24
2022-08-26T01:40:44.454Z,19.27
2022-08-26T01:41:44.498Z,19.27
2022-08-26T01:42:44.436Z,19.24
2022-08-26T01:43:44.432Z,19.24
2022-08-26T01:44:44.425Z,19.15
2022-08-26T01:45:44.451Z,19.26
2022-08-26T01:46:44.431Z,19.16
2022-08-26T01:47:44.415Z,19.18
2022-08-26T01:48:44.386Z,19.16
2022-08-26T01:49:44.378Z,19.15
2022-08-26T01:50:44.374Z,19.12
2022-08-26T01:51:44.392Z,19.11
2022-08-26T01:52:44.364Z,19.12
2022-08-26T01:53:46.863Z,19.09
2022-08-26T01:54:46.342Z,19.11
2022-08-26T01:55:45.333Z,19.04
2022-08-26T01:56:44.349Z,18.98
2022-08-26T01:57:44.305Z,19.00
2022-08-26T01:58:44.295Z,18.96
2022-08-26T01:59:44.284Z,18.89
2022-08-26T02:00:44.302Z,18.89
2022-08-26T02:01:44.296Z,18.96
2022-08-26T02:02:44.263Z,18.95
2022-08-26T02:03:44.252Z,18.90
2022-08-26T02:04:44.291Z,18.92
2022-08-26T02:05:44.251Z,18.88
2022-08-26T02:06:44.256Z,18.80
2022-08-26T02:07:44.224Z,18.81
2022-08-26T02:08:44.204Z,18.81
2022-08-26T02:09:44.204Z,18.70
2022-08-26T02:10:44.185Z,18.71
2022-08-26T02:11:44.218Z,18.66
2022-08-26T02:12:44.179Z,18.66
2022-08-26T02:13:44.163Z,18.71
2022-08-26T02:14:44.509Z,18.59
2022-08-26T02:15:44.167Z,18.63
2022-08-26T02:16:44.259Z,18.66
2022-08-26T02:17:44.153Z,18.62
2022-08-26T02:18:44.122Z,18.66
2022-08-26T02:19:44.114Z,18.63
2022-08-26T02:20:44.102Z,18.56
2022-08-26T02:21:44.129Z,18.66
2022-08-26T02:22:45.085Z,18.60
2022-08-26T02:23:44.085Z,18.59
2022-08-26T02:24:44.067Z,18.59
2022-08-26T02:25:44.059Z,18.66
2022-08-26T02:26:44.064Z,18.62
2022-08-26T02:27:44.068Z,18.59
2022-08-26T02:28:44.052Z,18.59
2022-08-26T02:29:44.035Z,18.63
2022-08-26T02:30:44.026Z,18.63
2022-08-26T02:31:44.106Z,18.62
2022-08-26T02:32:44.035Z,18.70
2022-08-26T02:33:43.994Z,18.55
2022-08-26T02:34:43.980Z,18.62
2022-08-26T02:35:43.989Z,18.68
2022-08-26T02:36:43.969Z,18.68
2022-08-26T02:37:44.011Z,18.67
2022-08-26T02:38:43.951Z,18.62
2022-08-26T02:39:43.943Z,18.58
2022-08-26T02:40:43.966Z,18.59
2022-08-26T02:41:45.305Z,18.60
2022-08-26T02:42:43.950Z,18.66
2022-08-26T02:43:43.918Z,18.60
2022-08-26T02:44:43.902Z,18.68
2022-08-26T02:45:43.972Z,18.63
2022-08-26T02:46:46.757Z,18.66
2022-08-26T02:47:43.909Z,18.59
2022-08-26T02:48:43.875Z,18.63
2022-08-26T02:49:44.377Z,18.60
2022-08-26T02:50:43.850Z,18.66
2022-08-26T02:51:43.852Z,18.70
2022-08-26T02:52:43.859Z,18.68
2022-08-26T02:53:43.831Z,18.73
2022-08-26T02:54:43.817Z,18.63
2022-08-26T02:55:43.803Z,18.66
2022-08-26T02:56:43.807Z,18.73
2022-08-26T02:57:43.819Z,18.63
2022-08-26T02:58:43.807Z,18.70
2022-08-26T02:59:43.782Z,18.59
2022-08-26T03:00:53.113Z,18.62
2022-08-26T03:01:44.813Z,18.68
2022-08-26T03:02:43.783Z,18.74
2022-08-26T03:03:43.744Z,18.73
2022-08-26T03:04:58.134Z,18.71
2022-08-26T03:05:44.741Z,18.66
2022-08-26T03:06:43.727Z,18.70
2022-08-26T03:07:44.735Z,18.56
2022-08-26T03:08:43.733Z,18.53
2022-08-26T03:09:43.688Z,18.62
2022-08-26T03:10:43.709Z,18.56
2022-08-26T03:11:43.695Z,18.56
2022-08-26T03:12:43.703Z,18.41
2022-08-26T03:13:43.657Z,18.52
2022-08-26T03:14:43.652Z,18.44
2022-08-26T03:15:43.689Z,18.55
2022-08-26T03:16:43.627Z,18.44
2022-08-26T03:17:43.681Z,18.58
2022-08-26T03:18:43.619Z,18.55
2022-08-26T03:19:44.605Z,18.53
2022-08-26T03:20:43.994Z,18.49
2022-08-26T03:21:43.589Z,18.55
2022-08-26T03:22:43.611Z,18.56
2022-08-26T03:23:43.587Z,18.62
2022-08-26T03:24:46.189Z,18.53
2022-08-26T03:25:43.556Z,18.60
2022-08-26T03:26:52.125Z,18.53
2022-08-26T03:27:44.566Z,18.60
2022-08-26T03:28:43.535Z,18.58
2022-08-26T03:29:43.517Z,18.59
2022-08-26T03:30:45.464Z,18.58
2022-08-26T03:31:43.562Z,18.66
2022-08-26T03:32:43.523Z,18.55
2022-08-26T03:33:43.496Z,18.52
2022-08-26T03:34:43.494Z,18.56
2022-08-26T03:35:43.492Z,18.55
2022-08-26T03:36:43.463Z,18.52
2022-08-26T03:37:43.479Z,18.62
2022-08-26T03:38:43.461Z,18.60
2022-08-26T03:39:43.437Z,18.58
2022-08-26T03:40:43.444Z,18.58
2022-08-26T03:41:43.418Z,18.56
2022-08-26T03:42:45.331Z,18.48
2022-08-26T03:43:43.408Z,18.55
2022-08-26T03:44:43.394Z,18.50
2022-08-26T03:45:43.383Z,18.55
2022-08-26T03:46:43.976Z,18.52
2022-08-26T03:47:43.394Z,18.58
2022-08-26T03:48:43.359Z,18.55
2022-08-26T03:49:43.354Z,18.55
2022-08-26T03:50:43.363Z,18.53
2022-08-26T03:51:43.346Z,18.60
2022-08-26T03:52:44.194Z,18.56
2022-08-26T03:53:44.316Z,18.59
2022-08-26T03:54:43.550Z,18.60
2022-08-26T03:55:43.367Z,18.60
2022-08-26T03:56:43.291Z,18.52
2022-08-26T03:57:43.318Z,18.67
2022-08-26T03:58:43.284Z,18.50
2022-08-26T03:59:43.268Z,18.52
2022-08-26T04:00:43.262Z,18.59
2022-08-26T04:01:43.326Z,18.56
2022-08-26T04:02:43.325Z,18.50
2022-08-26T04:03:43.265Z,18.55
2022-08-26T04:04:43.229Z,18.55
2022-08-26T04:05:43.225Z,18.52
2022-08-26T04:06:43.219Z,18.52
2022-08-26T04:07:43.244Z,18.38
2022-08-26T04:08:43.198Z,18.44
2022-08-26T04:09:43.197Z,18.38
2022-08-26T04:10:43.182Z,18.34
2022-08-26T04:11:43.194Z,18.37
2022-08-26T04:12:43.204Z,18.33
2022-08-26T04:13:43.179Z,18.26
2022-08-26T04:14:43.165Z,18.31
2022-08-26T04:15:43.182Z,18.33
2022-08-26T04:16:43.131Z,18.34
2022-08-26T04:17:43.148Z,18.43
2022-08-26T04:18:46.771Z,18.28
2022-08-26T04:19:43.111Z,18.38
2022-08-26T04:20:43.103Z,18.35
2022-08-26T04:21:43.102Z,18.40
2022-08-26T04:22:43.115Z,18.28
2022-08-26T04:23:47.625Z,18.40
2022-08-26T04:24:44.085Z,18.26
2022-08-26T04:25:43.055Z,18.30
2022-08-26T04:26:43.883Z,18.23
2022-08-26T04:27:43.042Z,18.20
2022-08-26T04:28:43.057Z,18.15
2022-08-26T04:29:43.023Z,18.15
2022-08-26T04:30:43.009Z,18.09
2022-08-26T04:31:43.073Z,18.07
2022-08-26T04:32:43.003Z,18.04
2022-08-26T04:33:43.028Z,18.01
2022-08-26T04:34:42.973Z,18.03
2022-08-26T04:35:43.599Z,18.09
2022-08-26T04:36:42.958Z,18.12
2022-08-26T04:37:43.128Z,18.07
2022-08-26T04:38:42.972Z,18.03
2022-08-26T04:39:42.935Z,18.13
2022-08-26T04:40:42.922Z,18.10
2022-08-26T04:41:42.931Z,18.22
2022-08-26T04:42:42.908Z,18.10
2022-08-26T04:43:42.927Z,18.19
2022-08-26T04:44:42.892Z,18.19
2022-08-26T04:45:42.993Z,18.26
2022-08-26T04:46:43.855Z,18.20
2022-08-26T04:47:42.871Z,18.19
2022-08-26T04:48:42.882Z,18.28
2022-08-26T04:49:42.861Z,18.28
2022-08-26T04:50:43.011Z,18.35
2022-08-26T04:51:43.910Z,18.43
2022-08-26T04:52:42.827Z,18.50
2022-08-26T04:53:42.847Z,18.56
2022-08-26T04:54:42.828Z,18.55
2022-08-26T04:55:44.982Z,18.55
2022-08-26T04:56:43.126Z,18.66
2022-08-26T04:57:42.869Z,18.67
2022-08-26T04:58:42.809Z,18.63
2022-08-26T04:59:42.767Z,18.68
2022-08-26T05:00:42.760Z,18.77
2022-08-26T05:01:42.816Z,18.89
2022-08-26T05:02:42.771Z,18.75
2022-08-26T05:03:42.761Z,18.83
2022-08-26T05:04:42.748Z,18.77
2022-08-26T05:05:42.718Z,18.75
2022-08-26T05:06:42.741Z,18.71
2022-08-26T05:07:42.804Z,18.73
2022-08-26T05:08:42.693Z,18.75
2022-08-26T05:09:42.685Z,18.78
2022-08-26T05:10:42.690Z,18.85
2022-08-26T05:11:42.667Z,18.90
2022-08-26T05:12:42.685Z,18.93
2022-08-26T05:13:42.651Z,18.73
2022-08-26T05:14:42.637Z,18.75
2022-08-26T05:15:42.733Z,18.71
2022-08-26T05:16:42.648Z,18.66
2022-08-26T05:17:42.651Z,18.59
2022-08-26T05:18:42.620Z,18.62
2022-08-26T05:19:42.804Z,18.62
2022-08-26T05:20:42.612Z,18.75
2022-08-26T05:21:42.593Z,18.83
2022-08-26T05:22:42.618Z,18.86
2022-08-26T05:23:42.575Z,18.96
2022-08-26T05:24:42.559Z,18.99
2022-08-26T05:25:42.562Z,19.22
2022-08-26T05:26:44.810Z,19.42
2022-08-26T05:27:42.566Z,19.66
2022-08-26T05:28:42.548Z,19.76
2022-08-26T05:29:42.545Z,20.06
2022-08-26T05:30:42.537Z,20.18
2022-08-26T05:31:42.513Z,20.36
2022-08-26T05:32:42.554Z,20.41
2022-08-26T05:33:42.473Z,20.44
2022-08-26T05:34:43.032Z,20.60
2022-08-26T05:35:42.470Z,20.53
2022-08-26T05:36:42.461Z,20.28
2022-08-26T05:37:42.517Z,20.31
2022-08-26T05:38:42.473Z,20.29
2022-08-26T05:39:43.579Z,20.15
2022-08-26T05:40:43.449Z,20.07
2022-08-26T05:41:42.411Z,20.06
2022-08-26T05:42:42.497Z,19.96
2022-08-26T05:43:42.401Z,19.92
2022-08-26T05:44:54.057Z,19.88
2022-08-26T05:45:45.952Z,19.97
2022-08-26T05:46:44.087Z,19.89
2022-08-26T05:47:42.385Z,19.92
2022-08-26T05:48:44.286Z,19.86
2022-08-26T05:49:43.789Z,19.94
2022-08-26T05:50:43.340Z,19.81
2022-08-26T05:51:42.321Z,19.76
2022-08-26T05:52:42.346Z,19.89
2022-08-26T05:53:43.882Z,19.96
2022-08-26T05:54:43.317Z,19.86
2022-08-26T05:55:43.296Z,19.94
2022-08-26T05:56:42.283Z,19.85
2022-08-26T05:57:42.859Z,19.97
2022-08-26T05:58:42.265Z,19.97
2022-08-26T05:59:42.274Z,20.11
2022-08-26T06:00:42.251Z,20.06
2022-08-26T06:01:42.309Z,20.09
2022-08-26T06:02:42.443Z,20.18
2022-08-26T06:03:42.223Z,20.33
2022-08-26T06:04:42.218Z,20.29
2022-08-26T06:05:42.210Z,20.21
2022-08-26T06:06:43.268Z,20.29
2022-08-26T06:07:42.229Z,20.31
2022-08-26T06:08:42.183Z,20.24
2022-08-26T06:09:42.197Z,20.43
2022-08-26T06:10:42.166Z,20.41
2022-08-26T06:11:42.158Z,20.43
2022-08-26T06:12:42.180Z,20.41
2022-08-26T06:13:42.143Z,20.39
2022-08-26T06:14:42.139Z,20.44
2022-08-26T06:15:42.219Z,20.53
2022-08-26T06:16:42.115Z,20.72
2022-08-26T06:17:42.154Z,20.67
2022-08-26T06:18:42.107Z,20.81
2022-08-26T06:19:42.089Z,20.92
2022-08-26T06:20:42.102Z,20.92
2022-08-26T06:22:07.320Z,20.99
2022-08-26T06:22:42.095Z,21.27
2022-08-26T06:23:42.055Z,21.59
2022-08-26T06:24:42.111Z,21.72
2022-08-26T06:25:42.051Z,22.22
2022-08-26T06:26:42.770Z,22.69
2022-08-26T06:27:42.041Z,23.05
2022-08-26T06:28:43.654Z,23.03
2022-08-26T06:29:42.027Z,23.37
2022-08-26T06:30:42.027Z,23.70
2022-08-26T06:31:42.002Z,24.02
2022-08-26T06:32:42.013Z,24.28
2022-08-26T06:33:43.234Z,24.45
2022-08-26T06:34:41.981Z,24.91
2022-08-26T06:35:41.972Z,25.18
2022-08-26T06:36:41.963Z,25.33
2022-08-26T06:37:41.969Z,25.47
2022-08-26T06:38:41.975Z,25.59
2022-08-26T06:39:41.940Z,25.80
2022-08-26T06:40:41.929Z,26.12
2022-08-26T06:41:43.468Z,26.33
2022-08-26T06:42:42.913Z,26.11
2022-08-26T06:43:41.926Z,26.22
2022-08-26T06:44:44.712Z,26.23
2022-08-26T06:45:41.888Z,26.34
2022-08-26T06:46:41.923Z,26.74
2022-08-26T06:47:41.876Z,26.72
2022-08-26T06:49:13.796Z,27.04
2022-08-26T06:49:41.850Z,27.41
2022-08-26T06:50:41.837Z,27.05
2022-08-26T06:51:41.847Z,27.46
2022-08-26T06:52:41.825Z,27.68
2022-08-26T06:53:41.846Z,27.48
2022-08-26T06:54:41.805Z,27.45
2022-08-26T06:55:41.799Z,27.44
2022-08-26T06:56:41.806Z,27.18
2022-08-26T06:57:41.781Z,27.23
2022-08-26T06:58:41.882Z,27.74
2022-08-26T06:59:41.773Z,28.29
2022-08-26T07:00:41.761Z,28.54
2022-08-26T07:01:42.861Z,28.76
2022-08-26T07:02:41.837Z,28.72
2022-08-26T07:03:42.767Z,29.05
2022-08-26T07:04:41.736Z,29.04
2022-08-26T07:05:41.733Z,29.21
2022-08-26T07:06:43.118Z,29.44
2022-08-26T07:07:41.704Z,29.36
2022-08-26T07:08:41.726Z,29.09
2022-08-26T07:09:41.679Z,29.14
2022-08-26T07:10:41.679Z,28.86
2022-08-26T07:11:41.670Z,28.57
2022-08-26T07:12:42.664Z,27.48
2022-08-26T07:13:41.702Z,27.46
2022-08-26T07:14:41.653Z,28.26
2022-08-26T07:15:42.676Z,28.63
2022-08-26T07:16:41.636Z,28.82
2022-08-26T07:17:41.637Z,29.11
2022-08-26T07:18:41.649Z,29.20
2022-08-26T07:19:41.616Z,29.78
2022-08-26T07:20:42.319Z,29.79
2022-08-26T07:21:41.667Z,29.76
2022-08-26T07:22:41.587Z,29.31
2022-08-26T07:23:41.612Z,29.28
2022-08-26T07:24:42.483Z,29.20
2022-08-26T07:25:41.567Z,29.19
2022-08-26T07:26:43.045Z,29.28
2022-08-26T07:27:41.554Z,29.75
2022-08-26T07:28:41.560Z,29.73
2022-08-26T07:29:42.540Z,29.72
2022-08-26T07:30:41.544Z,29.63
2022-08-26T07:31:42.792Z,29.48
2022-08-26T07:32:41.515Z,29.66
2022-08-26T07:33:41.538Z,30.20
2022-08-26T07:34:41.929Z,30.31
2022-08-26T07:35:41.494Z,30.80
2022-08-26T07:36:41.483Z,31.18
2022-08-26T07:37:41.477Z,31.16
2022-08-26T07:38:41.493Z,31.38
2022-08-26T07:39:41.459Z,31.53
2022-08-26T07:40:41.450Z,31.62
2022-08-26T07:41:41.442Z,31.82
2022-08-26T07:42:41.441Z,32.30
2022-08-26T07:43:41.467Z,32.52
2022-08-26T07:44:41.424Z,32.69
2022-08-26T07:45:41.422Z,32.80
2022-08-26T07:46:42.425Z,33.09
2022-08-26T07:47:41.399Z,32.79
2022-08-26T07:48:41.387Z,32.62
2022-08-26T07:49:41.461Z,32.61
2022-08-26T07:50:50.256Z,32.96
2022-08-26T07:51:42.368Z,32.61
2022-08-26T07:52:41.358Z,32.37
2022-08-26T07:53:41.382Z,32.34
2022-08-26T07:54:41.340Z,32.43
2022-08-26T07:55:41.346Z,32.25
2022-08-26T07:56:41.376Z,32.64
2022-08-26T07:57:41.346Z,32.57
2022-08-26T07:58:41.337Z,32.42
2022-08-26T07:59:41.336Z,32.35
2022-08-26T08:00:41.399Z,33.06
2022-08-26T08:01:41.503Z,33.52
2022-08-26T08:02:41.350Z,33.58
2022-08-26T08:03:41.355Z,33.70
2022-08-26T08:04:41.326Z,33.39
2022-08-26T08:05:41.449Z,33.09
2022-08-26T08:06:41.300Z,33.36
2022-08-26T08:07:45.392Z,34.18
2022-08-26T08:08:41.266Z,34.21
2022-08-26T08:09:41.306Z,34.42
2022-08-26T08:10:41.225Z,34.08
2022-08-26T08:11:41.221Z,34.51
2022-08-26T08:12:41.345Z,34.59
2022-08-26T08:13:41.274Z,34.86
2022-08-26T08:14:41.302Z,34.66
2022-08-26T08:15:41.199Z,34.58
2022-08-26T08:16:46.075Z,33.56
2022-08-26T08:17:43.167Z,33.65
2022-08-26T08:18:41.203Z,33.52
2022-08-26T08:19:41.161Z,33.68
2022-08-26T08:20:44.753Z,33.89
2022-08-26T08:21:42.138Z,33.40
2022-08-26T08:22:41.135Z,32.86
2022-08-26T08:23:41.163Z,32.72
2022-08-26T08:24:41.144Z,32.46
2022-08-26T08:25:41.149Z,31.90
2022-08-26T08:26:41.121Z,31.53
2022-08-26T08:27:41.102Z,31.44
2022-08-26T08:28:41.127Z,31.63
2022-08-26T08:29:41.088Z,31.41
2022-08-26T08:30:41.135Z,30.80
2022-08-26T08:31:58.284Z,30.45
2022-08-26T08:32:43.071Z,30.54
2022-08-26T08:33:41.098Z,30.66
2022-08-26T08:35:41.044Z,31.75
2022-08-26T08:36:41.070Z,31.41
2022-08-26T08:37:41.034Z,31.15
2022-08-26T08:38:41.063Z,31.34
2022-08-26T08:39:41.024Z,32.12
2022-08-26T08:40:41.013Z,32.71
2022-08-26T08:41:41.002Z,33.16
2022-08-26T08:42:41.037Z,33.04
2022-08-26T08:43:41.014Z,32.91
2022-08-26T08:44:40.989Z,32.74
2022-08-26T08:45:41.021Z,32.56
2022-08-26T08:46:40.959Z,32.31
2022-08-26T08:47:40.960Z,31.71
2022-08-26T08:48:40.972Z,30.84
2022-08-26T08:49:40.944Z,30.51
2022-08-26T08:50:40.929Z,29.92
2022-08-26T08:51:40.928Z,29.33
2022-08-26T08:52:40.928Z,29.31
2022-08-26T08:53:40.941Z,29.17
2022-08-26T08:54:40.898Z,29.44
2022-08-26T08:55:40.895Z,29.57
2022-08-26T08:56:40.882Z,29.36
2022-08-26T08:57:40.871Z,29.31
2022-08-26T08:58:41.899Z,29.57
2022-08-26T08:59:40.864Z,29.69
2022-08-26T09:00:40.848Z,30.06
2022-08-26T09:01:40.869Z,30.20
2022-08-26T09:02:41.892Z,30.28
2022-08-26T09:03:40.865Z,31.24
2022-08-26T09:04:40.826Z,31.34
2022-08-26T09:05:42.566Z,31.66
2022-08-26T09:06:41.094Z,31.86
2022-08-26T09:07:40.807Z,32.35
2022-08-26T09:08:40.827Z,32.69
2022-08-26T09:09:40.790Z,33.43
2022-08-26T09:10:40.786Z,33.63
2022-08-26T09:11:40.778Z,33.16
2022-08-26T09:12:40.769Z,32.75
2022-08-26T09:13:40.800Z,32.42
2022-08-26T09:14:40.754Z,32.47
2022-08-26T09:15:40.735Z,32.86
2022-08-26T09:16:40.766Z,33.76
2022-08-26T09:17:40.725Z,34.67
2022-08-26T09:18:41.759Z,34.72
2022-08-26T09:19:40.718Z,34.44
2022-08-26T09:20:40.705Z,33.85
2022-08-26T09:21:40.705Z,33.95
2022-08-26T09:22:40.691Z,33.58
2022-08-26T09:23:41.852Z,33.24
2022-08-26T09:24:48.545Z,32.80
2022-08-26T09:25:41.731Z,32.56
2022-08-26T09:26:40.666Z,32.01
2022-08-26T09:27:40.681Z,32.12
2022-08-26T09:28:40.650Z,32.40
2022-08-26T09:29:40.682Z,32.00
2022-08-26T09:30:40.721Z,31.56
2022-08-26T09:31:40.638Z,31.62
2022-08-26T09:32:40.620Z,31.43
2022-08-26T09:33:40.617Z,31.60
2022-08-26T09:34:40.633Z,32.15
2022-08-26T09:35:40.606Z,32.20
2022-08-26T09:36:41.522Z,31.81
2022-08-26T09:37:40.612Z,31.93
2022-08-26T09:38:40.579Z,31.91
2022-08-26T09:39:40.602Z,31.60
2022-08-26T09:40:40.561Z,31.80
2022-08-26T09:41:40.560Z,31.87
2022-08-26T09:42:40.565Z,31.82
2022-08-26T09:43:40.557Z,32.72
2022-08-26T09:44:40.566Z,33.68
2022-08-26T09:45:40.557Z,34.02
2022-08-26T09:46:41.522Z,34.22
2022-08-26T09:47:40.592Z,34.24
2022-08-26T09:48:41.037Z,34.55
2022-08-26T09:49:41.472Z,35.11
2022-08-26T09:50:40.993Z,35.67
2022-08-26T09:51:40.525Z,35.62
2022-08-26T09:52:42.787Z,35.90
2022-08-26T09:53:40.534Z,35.43
2022-08-26T09:54:40.492Z,35.62
2022-08-26T09:55:40.454Z,35.04
2022-08-26T09:56:40.445Z,34.82
2022-08-26T09:57:40.443Z,34.51
2022-08-26T09:58:40.435Z,35.16
2022-08-26T09:59:40.457Z,35.53
2022-08-26T10:00:40.421Z,35.42
2022-08-26T10:01:40.469Z,35.89
2022-08-26T10:02:40.412Z,36.19
2022-08-26T10:03:41.407Z,36.92
2022-08-26T10:04:40.505Z,37.62
2022-08-26T10:05:40.398Z,37.90
2022-08-26T10:06:40.392Z,37.45
2022-08-26T10:07:40.387Z,36.33
2022-08-26T10:08:40.367Z,36.36
2022-08-26T10:09:40.393Z,35.79
2022-08-26T10:10:40.356Z,35.23
2022-08-26T10:11:40.352Z,35.11
2022-08-26T10:12:40.346Z,35.60
2022-08-26T10:13:40.334Z,35.60
2022-08-26T10:15:40.319Z,35.99
2022-08-26T10:16:41.348Z,36.08
2022-08-26T10:17:40.313Z,36.12
2022-08-26T10:18:40.301Z,36.18
2022-08-26T10:19:55.895Z,35.38
2022-08-26T10:20:41.292Z,35.23
2022-08-26T10:21:40.291Z,35.73
2022-08-26T10:22:40.277Z,35.48
2022-08-26T10:24:40.295Z,37.12
2022-08-26T10:25:40.253Z,37.81
2022-08-26T10:26:40.241Z,37.26
2022-08-26T10:27:40.579Z,37.43
2022-08-26T10:28:41.228Z,38.61
2022-08-26T10:29:40.260Z,39.34
2022-08-26T10:30:40.235Z,39.09
2022-08-26T10:31:40.975Z,39.40
2022-08-26T10:32:41.407Z,38.92
2022-08-26T10:33:40.239Z,37.48
2022-08-26T10:34:40.216Z,37.39
2022-08-26T10:35:40.196Z,37.51
2022-08-26T10:37:05.065Z,37.57
2022-08-26T10:37:42.184Z,37.11
2022-08-26T10:38:40.167Z,37.33
2022-08-26T10:39:40.195Z,37.15
2022-08-26T10:40:40.185Z,37.00
2022-08-26T10:41:40.152Z,36.27
2022-08-26T10:42:40.148Z,35.98
2022-08-26T10:43:41.023Z,35.99
2022-08-26T10:44:40.162Z,36.12
2022-08-26T10:45:40.157Z,36.15
2022-08-26T10:46:40.122Z,35.68
2022-08-26T10:47:40.119Z,35.28
2022-08-26T10:48:40.111Z,34.47
2022-08-26T10:49:40.130Z,33.95
2022-08-26T10:50:40.097Z,33.43
2022-08-26T10:51:40.094Z,33.54
2022-08-26T10:52:40.105Z,33.62
2022-08-26T10:53:40.082Z,33.66
2022-08-26T10:54:40.103Z,33.77
2022-08-26T10:55:40.071Z,33.70
2022-08-26T10:56:40.060Z,33.66
2022-08-26T10:57:40.052Z,33.58
2022-08-26T10:58:40.090Z,33.63
2022-08-26T10:59:40.074Z,33.31
2022-08-26T11:00:40.100Z,33.17
2022-08-26T11:01:40.777Z,33.04
2022-08-26T11:02:39.999Z,32.82
2022-08-26T11:03:42.006Z,32.84
2022-08-26T11:04:43.266Z,32.99
2022-08-26T11:05:40.999Z,33.17
2022-08-26T11:06:39.990Z,33.37
2022-08-26T11:07:40.003Z,33.44
2022-08-26T11:08:39.965Z,33.63
2022-08-26T11:09:40.996Z,33.52
2022-08-26T11:10:39.965Z,33.54
2022-08-26T11:11:40.962Z,33.62
2022-08-26T11:12:39.949Z,33.70
2022-08-26T11:13:41.614Z,33.56
2022-08-26T11:14:53.961Z,33.40
2022-08-26T11:15:41.930Z,33.12
2022-08-26T11:16:42.905Z,33.20
2022-08-26T11:17:39.917Z,33.36
2022-08-26T11:18:39.914Z,33.44
2022-08-26T11:19:59.491Z,33.27
2022-08-26T11:20:42.388Z,33.16
2022-08-26T11:21:39.884Z,33.24
2022-08-26T11:22:47.403Z,33.06
2022-08-26T11:23:41.604Z,33.12
2022-08-26T11:24:39.888Z,33.20
2022-08-26T11:25:39.848Z,33.27
2022-08-26T11:26:56.246Z,33.20
2022-08-26T11:27:40.843Z,32.84
2022-08-26T11:28:39.829Z,32.89
2022-08-26T11:29:39.845Z,32.87
2022-08-26T11:30:40.042Z,33.09
2022-08-26T11:31:39.836Z,33.12
2022-08-26T11:32:39.793Z,32.75
2022-08-26T11:33:39.788Z,32.46
2022-08-26T11:34:39.805Z,32.11
2022-08-26T11:35:39.778Z,32.06
2022-08-26T11:36:39.777Z,32.18
2022-08-26T11:37:40.600Z,32.25
2022-08-26T11:38:39.751Z,32.31
2022-08-26T11:39:43.271Z,32.33
2022-08-26T11:40:40.777Z,32.31
2022-08-26T11:41:39.742Z,32.24
2022-08-26T11:42:39.722Z,32.05
2022-08-26T11:43:39.715Z,32.18
2022-08-26T11:44:39.732Z,32.23
2022-08-26T11:45:39.709Z,32.38
2022-08-26T11:46:39.686Z,32.20
2022-08-26T11:47:39.687Z,32.03
2022-08-26T11:48:39.673Z,31.77
2022-08-26T11:49:39.699Z,31.82
2022-08-26T11:50:39.655Z,31.68
2022-08-26T11:51:40.547Z,31.60
2022-08-26T11:52:40.637Z,31.58
2022-08-26T11:53:39.630Z,31.44
2022-08-26T11:54:39.657Z,31.25
2022-08-26T11:55:39.616Z,31.29
2022-08-26T11:56:39.612Z,31.11
2022-08-26T11:57:39.606Z,30.85
2022-08-26T11:58:39.601Z,30.89
2022-08-26T11:59:39.633Z,31.06
2022-08-26T12:00:39.583Z,30.96
2022-08-26T12:01:40.587Z,30.89
2022-08-26T12:02:39.571Z,30.77
2022-08-26T12:03:39.602Z,30.80
2022-08-26T12:04:39.710Z,31.00
2022-08-26T12:05:39.603Z,31.30
2022-08-26T12:06:45.199Z,31.30
2022-08-26T12:07:42.577Z,31.44
2022-08-26T12:08:39.573Z,31.60
2022-08-26T12:09:39.545Z,31.60
2022-08-26T12:10:39.514Z,31.55
2022-08-26T12:11:39.974Z,31.58
2022-08-26T12:12:39.499Z,31.52
2022-08-26T12:13:39.489Z,31.58
2022-08-26T12:14:39.683Z,31.44
2022-08-26T12:15:39.476Z,31.51
2022-08-26T12:16:39.521Z,31.53
2022-08-26T12:17:39.468Z,31.53
2022-08-26T12:18:39.458Z,31.59
2022-08-26T12:19:39.478Z,31.53
2022-08-26T12:20:39.437Z,31.31
2022-08-26T12:21:39.432Z,31.15
2022-08-26T12:22:39.430Z,31.09
2022-08-26T12:23:39.423Z,30.96
2022-08-26T12:24:39.445Z,31.02
2022-08-26T12:25:39.401Z,31.07
2022-08-26T12:26:39.398Z,31.12
2022-08-26T12:27:39.393Z,31.16
2022-08-26T12:28:39.376Z,31.16
2022-08-26T12:29:39.612Z,31.40
2022-08-26T12:30:39.379Z,31.43
2022-08-26T12:31:39.384Z,31.59
2022-08-26T12:32:39.343Z,31.53
2022-08-26T12:33:40.339Z,31.73
2022-08-26T12:34:39.358Z,31.80
2022-08-26T12:35:39.325Z,32.00
2022-08-26T12:36:39.316Z,32.11
2022-08-26T12:37:39.309Z,32.19
2022-08-26T12:38:39.293Z,32.13
2022-08-26T12:39:39.323Z,32.19
2022-08-26T12:40:39.281Z,32.27
2022-08-26T12:41:39.276Z,32.40
2022-08-26T12:42:39.269Z,32.62
2022-08-26T12:43:39.261Z,32.87
2022-08-26T12:44:39.281Z,32.55
2022-08-26T12:45:39.269Z,32.72
2022-08-26T12:46:39.234Z,32.93
2022-08-26T12:47:42.956Z,33.27
2022-08-26T12:48:39.222Z,33.37
2022-08-26T12:49:39.239Z,33.08
2022-08-26T12:50:39.215Z,33.14
2022-08-26T12:51:39.191Z,33.23
2022-08-26T12:52:39.188Z,33.44
2022-08-26T12:53:39.184Z,33.24
2022-08-26T12:54:39.202Z,32.84
2022-08-26T12:55:39.168Z,32.91